Time;durP1;ratioP1;P1;durP2;ratioP2;P2;SDS_P1;SDS_P2;PMS_P1;PMS_P2;Temp;Humidity;BMP_temperature;BMP_pressure;BME280_temperature;BME280_humidity;BME280_pressure;Samples;Min_cycle;Max_cycle;Signal;HPM_P1;HPM_P2
2021/03/23 00:00:59;;;;;;;;;;;;;;;5.15;89.64;102100.66;5065395;28;20194;-86
2021/03/23 00:03:24;;;;;;;;;;;;;;;5.12;89.15;102091.09;5059138;28;19943;-86
2021/03/23 00:05:49;;;;;;;;;;;;;;;5.13;89.76;102103.44;5074805;28;20408;-85
2021/03/23 00:08:26;;;;;;;;;;;;;;;5.14;89.73;102099.81;5056672;28;20354;-83
2021/03/23 00:10:52;;;;;;;;;;;;;;;5.14;89.21;102099.81;5080204;28;19920;-85
2021/03/23 00:13:18;;;;;;;;;;;;;;;5.14;90.00;102099.81;5078593;28;20397;-85
2021/03/23 00:15:44;;;;;;;;;;;;;;;5.11;88.65;102094.69;5064840;28;20866;-86
2021/03/23 00:18:09;;;;;;;;;;;;;;;5.13;89.05;102092.78;5064347;28;19924;-85
2021/03/23 00:20:34;;;;;;;;;;;;;;;5.13;89.05;102090.13;5060607;28;19947;-83
2021/03/23 00:23:00;;;;;;;;;;;;;;;5.13;88.45;102090.13;5057568;28;20044;-83
2021/03/23 00:25:25;;;;;;;;;;;;;;;5.13;88.39;102090.13;5060351;28;19920;-86
2021/03/23 00:27:50;;;;;;;;;;;;;;;5.13;88.58;102090.13;5074764;28;20293;-86
2021/03/23 00:30:16;;;;;;;;;;;;;;;5.12;88.82;102091.09;5064425;28;19923;-84
2021/03/23 00:32:41;;;;;;;;;;;;;;;5.15;89.39;102088.25;5066309;28;20123;-83
2021/03/23 00:35:08;;;;;;;;;;;;;;;5.13;88.45;102092.78;5080895;28;19923;-85
2021/03/23 00:37:33;;;;;;;;;;;;;;;5.11;88.72;102089.38;5074283;28;19932;-86
2021/03/23 00:39:59;;;;;;;;;;;;;;;5.10;88.63;102087.66;5062184;28;20197;-84
2021/03/23 00:42:24;;;;;;;;;;;;;;;5.08;88.55;102097.53;5065323;28;20008;-85
2021/03/23 00:44:50;;;;;;;;;;;;;;;5.08;88.56;102089.56;5072460;28;20394;-84
2021/03/23 00:47:15;;;;;;;;;;;;;;;5.10;88.64;102098.31;5083095;28;19927;-84
2021/03/23 00:49:41;;;;;;;;;;;;;;;5.09;89.04;102104.59;5063661;28;19920;-84
2021/03/23 00:52:06;;;;;;;;;;;;;;;5.08;88.53;102104.69;5043268;28;19931;-87
2021/03/23 00:54:31;;;;;;;;;;;;;;;5.07;88.20;102100.31;5064428;28;19920;-86
2021/03/23 00:56:57;;;;;;;;;;;;;;;5.06;88.40;102096.78;5047051;28;19920;-85
2021/03/23 00:59:22;;;;;;;;;;;;;;;5.08;89.12;102102.88;5062033;28;20460;-85
2021/03/23 01:01:48;;;;;;;;;;;;;;;5.08;89.40;102107.34;5078652;28;20121;-86
2021/03/23 01:04:13;;;;;;;;;;;;;;;5.09;89.78;102107.25;5048440;28;19919;-87
2021/03/23 01:06:38;;;;;;;;;;;;;;;5.07;89.33;102103.81;5067283;28;19934;-85
2021/03/23 01:09:03;;;;;;;;;;;;;;;5.07;90.16;102098.50;5071767;28;19989;-86
2021/03/23 01:11:29;;;;;;;;;;;;;;;5.04;89.43;102097.84;5071638;28;20304;-84
2021/03/23 01:13:54;;;;;;;;;;;;;;;5.01;89.28;102090.91;5063733;28;19924;-86
2021/03/23 01:16:19;;;;;;;;;;;;;;;5.02;89.61;102097.09;5059854;28;19973;-83
2021/03/23 01:18:45;;;;;;;;;;;;;;;5.03;89.64;102096.97;5064537;28;19928;-85
2021/03/23 01:21:10;;;;;;;;;;;;;;;5.05;90.18;102087.09;5058038;28;20073;-86
2021/03/23 01:23:35;;;;;;;;;;;;;;;5.01;89.35;102093.56;5059433;28;19954;-85
2021/03/23 01:26:01;;;;;;;;;;;;;;;5.03;90.03;102091.66;5071782;28;19950;-85
2021/03/23 01:28:26;;;;;;;;;;;;;;;5.03;90.70;102096.13;5070786;28;20368;-84
2021/03/23 01:30:51;;;;;;;;;;;;;;;5.01;89.97;102093.56;5081392;28;19981;-85
2021/03/23 01:33:16;;;;;;;;;;;;;;;5.01;89.76;102093.56;5081488;28;19917;-85
2021/03/23 01:35:42;;;;;;;;;;;;;;;5.02;90.92;102097.09;5056436;28;20060;-85
2021/03/23 01:38:07;;;;;;;;;;;;;;;5.01;90.37;102098.03;5040212;28;19940;-84
2021/03/23 01:40:34;;;;;;;;;;;;;;;4.99;90.41;102092.81;5059573;28;20077;-86
2021/03/23 01:43:01;;;;;;;;;;;;;;;5.01;90.43;102082.09;5079246;28;19989;-86
2021/03/23 01:45:27;;;;;;;;;;;;;;;5.02;90.52;102097.94;5048176;28;19916;-85
2021/03/23 01:47:52;;;;;;;;;;;;;;;5.06;91.31;102096.78;5059114;28;20287;-85
2021/03/23 01:50:18;;;;;;;;;;;;;;;5.03;90.83;102094.31;5049320;28;19976;-85
2021/03/23 01:52:46;;;;;;;;;;;;;;;5.04;90.92;102084.56;5069321;28;20498;-85
2021/03/23 01:55:11;;;;;;;;;;;;;;;5.04;91.22;102076.56;5057580;28;19920;-83
2021/03/23 01:57:38;;;;;;;;;;;;;;;5.03;91.12;102086.31;5062653;28;19981;-85
2021/03/23 02:00:06;;;;;;;;;;;;;;;5.00;91.07;102081.19;5060944;28;19931;-85
2021/03/23 02:02:32;;;;;;;;;;;;;;;5.03;91.37;102081.00;5059271;28;19931;-84
2021/03/23 02:04:57;;;;;;;;;;;;;;;5.03;90.88;102075.69;5071494;28;19928;-85
2021/03/23 02:07:22;;;;;;;;;;;;;;;5.01;90.66;102071.44;5080853;28;19923;-85
2021/03/23 02:09:51;;;;;;;;;;;;;;;5.02;90.86;102071.31;5082403;28;19916;-86
2021/03/23 02:12:18;;;;;;;;;;;;;;;5.03;90.58;102061.53;5062674;28;19916;-84
2021/03/23 02:14:45;;;;;;;;;;;;;;;5.05;90.67;102065.81;5068383;28;19920;-84
2021/03/23 02:17:19;;;;;;;;;;;;;;;5.04;90.03;102064.13;5063331;28;20331;-86
2021/03/23 02:19:45;;;;;;;;;;;;;;;5.02;89.83;102058.03;5071671;28;20403;-86
2021/03/23 02:22:14;;;;;;;;;;;;;;;5.05;90.90;102063.16;5080262;28;19939;-86
2021/03/23 02:24:39;;;;;;;;;;;;;;;5.03;91.26;102054.41;5078089;28;20516;-84
2021/03/23 02:27:05;;;;;;;;;;;;;;;5.00;90.30;102045.75;5065839;28;20054;-86
2021/03/23 02:29:30;;;;;;;;;;;;;;;5.02;91.23;102047.38;5069272;28;19920;-85
2021/03/23 02:31:56;;;;;;;;;;;;;;;5.02;91.90;102046.53;5055556;28;19920;-86
2021/03/23 02:34:23;;;;;;;;;;;;;;;4.94;90.92;102039.03;5058185;28;19920;-85
2021/03/23 02:36:49;;;;;;;;;;;;;;;4.95;90.08;102038.09;5069128;28;19989;-84
2021/03/23 02:39:16;;;;;;;;;;;;;;;4.99;89.97;102036.94;5081247;28;20390;-86
2021/03/23 02:41:42;;;;;;;;;;;;;;;4.97;89.30;102038.84;5082008;28;19923;-84
2021/03/23 02:44:07;;;;;;;;;;;;;;;4.98;90.38;102046.72;5072232;28;19924;-85
2021/03/23 02:46:33;;;;;;;;;;;;;;;4.98;89.32;102040.56;5075368;28;20448;-85
2021/03/23 02:48:59;;;;;;;;;;;;;;;4.98;89.87;102041.41;5061443;28;19999;-86
2021/03/23 02:51:24;;;;;;;;;;;;;;;5.00;89.67;102045.75;5081449;28;19916;-86
2021/03/23 02:53:50;;;;;;;;;;;;;;;4.96;89.82;102037.97;5040246;28;19993;-86
2021/03/23 02:56:15;;;;;;;;;;;;;;;4.96;89.79;102037.13;5057528;28;19988;-85
2021/03/23 02:58:41;;;;;;;;;;;;;;;4.96;90.46;102030.00;5065825;28;19997;-83
2021/03/23 03:01:07;;;;;;;;;;;;;;;4.94;90.00;102033.72;5071890;28;19927;-87
2021/03/23 03:03:33;;;;;;;;;;;;;;;4.93;89.50;102042.66;5053242;28;20007;-85
2021/03/23 03:05:59;;;;;;;;;;;;;;;4.94;89.80;102036.38;5067468;28;19926;-85
2021/03/23 03:08:24;;;;;;;;;;;;;;;4.97;90.38;102028.19;5068644;28;19993;-84
2021/03/23 03:10:50;;;;;;;;;;;;;;;5.00;90.85;102032.47;5058642;28;20439;-85
2021/03/23 03:13:16;;;;;;;;;;;;;;;4.97;90.31;102026.38;5066869;28;20385;-86
2021/03/23 03:15:42;;;;;;;;;;;;;;;4.97;89.87;102023.72;5067759;28;19928;-84
2021/03/23 03:18:07;;;;;;;;;;;;;;;4.98;90.20;102024.59;5066776;28;19925;-85
2021/03/23 03:20:32;;;;;;;;;;;;;;;5.01;89.93;102018.22;5081073;28;19927;-83
2021/03/23 03:22:58;;;;;;;;;;;;;;;5.00;90.10;102027.16;5045020;28;19916;-85
2021/03/23 03:25:23;;;;;;;;;;;;;;;4.97;89.63;102018.41;5081283;28;19916;-86
2021/03/23 03:27:48;;;;;;;;;;;;;;;4.96;89.34;102029.16;5072282;28;20097;-84
2021/03/23 03:30:22;;;;;;;;;;;;;;;4.94;89.86;102028.38;5079521;28;19916;-85
2021/03/23 03:32:48;;;;;;;;;;;;;;;4.94;89.58;102029.25;5061478;28;20018;-85
2021/03/23 03:35:13;;;;;;;;;;;;;;;4.94;89.53;102023.06;5058102;28;19920;-84
2021/03/23 03:37:38;;;;;;;;;;;;;;;4.93;89.64;102021.38;5078876;28;19924;-84
2021/03/23 03:40:09;;;;;;;;;;;;;;;4.92;89.86;102016.97;5042743;28;19993;-83
2021/03/23 03:42:34;;;;;;;;;;;;;;;4.92;89.46;102016.97;5051629;28;19924;-84
2021/03/23 03:45:00;;;;;;;;;;;;;;;4.93;89.30;102022.22;5051213;28;20447;-84
2021/03/23 03:47:25;;;;;;;;;;;;;;;4.92;89.49;102019.63;5074219;28;20247;-83
2021/03/23 03:49:50;;;;;;;;;;;;;;;4.93;89.03;102024.88;5069625;28;19920;-84
2021/03/23 03:52:15;;;;;;;;;;;;;;;4.96;89.77;102021.19;5071901;28;19924;-85
2021/03/23 03:54:41;;;;;;;;;;;;;;;4.95;89.47;102030.13;5057456;28;20006;-86
2021/03/23 03:57:06;;;;;;;;;;;;;;;4.95;89.53;102024.78;5056924;28;19917;-85
2021/03/23 03:59:31;;;;;;;;;;;;;;;4.91;88.34;102033.91;5074867;28;19920;-86
2021/03/23 04:01:57;;;;;;;;;;;;;;;4.92;89.11;102027.63;5053591;28;19924;-85
2021/03/23 04:04:22;;;;;;;;;;;;;;;4.93;89.54;102026.69;5079913;28;19982;-85
2021/03/23 04:06:47;;;;;;;;;;;;;;;4.91;89.23;102024.13;5058246;28;19924;-85
2021/03/23 04:09:12;;;;;;;;;;;;;;;4.93;89.48;102024.88;5049495;28;20011;-83
2021/03/23 04:11:38;;;;;;;;;;;;;;;4.90;89.17;102021.56;5074711;28;19960;-87
2021/03/23 04:14:03;;;;;;;;;;;;;;;4.89;88.86;102015.41;5064278;28;19921;-86
2021/03/23 04:16:28;;;;;;;;;;;;;;;4.90;89.29;102025.06;5081700;28;20574;-84
2021/03/23 04:18:53;;;;;;;;;;;;;;;4.92;89.43;102030.28;5064013;28;19920;-84
2021/03/23 04:21:19;;;;;;;;;;;;;;;4.91;89.64;102031.25;5085044;28;19920;-84
2021/03/23 04:23:44;;;;;;;;;;;;;;;4.91;89.79;102026.78;5073664;28;20342;-85
2021/03/23 04:26:11;;;;;;;;;;;;;;;4.89;89.39;102026.03;5060684;28;19927;-83
2021/03/23 04:28:38;;;;;;;;;;;;;;;4.92;90.19;102030.28;5077053;28;20248;-84
2021/03/23 04:31:04;;;;;;;;;;;;;;;4.92;90.10;102035.59;5056546;28;19927;-86
2021/03/23 04:33:29;;;;;;;;;;;;;;;4.92;90.58;102035.59;5070570;28;19919;-85
2021/03/23 04:35:54;;;;;;;;;;;;;;;4.91;90.42;102023.25;5082229;28;20140;-86
2021/03/23 04:38:21;;;;;;;;;;;;;;;4.90;90.18;102021.56;5078748;28;20274;-85
2021/03/23 04:40:47;;;;;;;;;;;;;;;4.89;90.64;102028.69;5045841;28;19920;-86
2021/03/23 04:43:20;;;;;;;;;;;;;;;4.90;90.59;102021.56;5074270;28;19931;-85
2021/03/23 04:45:45;;;;;;;;;;;;;;;4.91;90.55;102025.94;5060514;28;19972;-86
2021/03/23 04:48:11;;;;;;;;;;;;;;;4.90;90.50;102019.75;5065216;28;20363;-86
2021/03/23 04:50:36;;;;;;;;;;;;;;;4.91;90.46;102024.13;5064798;28;19916;-83
2021/03/23 04:53:01;;;;;;;;;;;;;;;4.91;90.52;102018.78;5057083;28;19924;-84
2021/03/23 04:55:26;;;;;;;;;;;;;;;4.92;90.31;102009.88;5078661;28;19927;-85
2021/03/23 04:57:52;;;;;;;;;;;;;;;4.94;90.86;102012.44;5049692;28;20350;-84
2021/03/23 05:00:35;;;;;;;;;;;;;;;4.91;90.62;102007.31;5059033;28;19931;-85
2021/03/23 05:03:01;;;;;;;;;;;;;;;4.93;90.42;102000.94;5080538;28;19928;-85
2021/03/23 05:05:26;;;;;;;;;;;;;;;4.92;90.65;102003.69;5055799;28;19924;-85
2021/03/23 05:07:52;;;;;;;;;;;;;;;4.93;90.53;102002.75;5039920;28;20058;-83
2021/03/23 05:10:17;;;;;;;;;;;;;;;4.92;90.82;101999.25;5043931;28;19923;-86
2021/03/23 05:12:42;;;;;;;;;;;;;;;4.90;90.48;102005.59;5062263;28;19915;-84
2021/03/23 05:15:09;;;;;;;;;;;;;;;4.90;91.12;102005.59;5050495;28;20357;-87
2021/03/23 05:17:34;;;;;;;;;;;;;;;4.88;90.52;101996.88;5053153;28;19920;-83
2021/03/23 05:20:00;;;;;;;;;;;;;;;4.87;90.07;101996.00;5059900;28;20439;-86
2021/03/23 05:22:25;;;;;;;;;;;;;;;4.88;90.40;102000.38;5069720;28;19920;-86
2021/03/23 05:24:50;;;;;;;;;;;;;;;4.90;90.52;101994.97;5077437;28;20093;-86
2021/03/23 05:27:15;;;;;;;;;;;;;;;4.88;90.43;101999.53;5045016;28;19924;-84
2021/03/23 05:29:41;;;;;;;;;;;;;;;4.88;90.76;101997.72;5057576;28;19920;-85
2021/03/23 05:32:06;;;;;;;;;;;;;;;4.90;90.93;102000.28;5070899;28;19927;-85
2021/03/23 05:34:32;;;;;;;;;;;;;;;4.90;90.54;102001.13;5074920;28;19920;-85
2021/03/23 05:36:57;;;;;;;;;;;;;;;4.90;90.44;102009.13;5071683;28;20090;-85
2021/03/23 05:39:22;;;;;;;;;;;;;;;4.91;90.25;102008.16;5062116;28;19920;-87
2021/03/23 05:41:57;;;;;;;;;;;;;;;4.91;89.83;102013.47;5075237;28;20017;-86
2021/03/23 05:44:28;;;;;;;;;;;;;;;4.93;90.07;102019.56;5060216;28;19916;-84
2021/03/23 05:46:54;;;;;;;;;;;;;;;4.93;89.47;102014.25;5075983;28;19928;-85
2021/03/23 05:49:31;;;;;;;;;;;;;;;4.94;89.09;102017.75;5077116;28;19921;-85
2021/03/23 05:52:01;;;;;;;;;;;;;;;4.94;88.63;102023.06;5071023;28;19962;-86
2021/03/23 05:54:31;;;;;;;;;;;;;;;4.96;89.27;102024.69;5051445;28;20430;-85
2021/03/23 05:57:00;;;;;;;;;;;;;;;4.96;89.08;102023.84;5048281;28;20272;-84
2021/03/23 05:59:35;;;;;;;;;;;;;;;4.95;90.05;102022.97;5060039;28;19931;-84
2021/03/23 06:02:05;;;;;;;;;;;;;;;4.95;90.00;102022.97;5072071;28;19926;-84
2021/03/23 06:04:51;;;;;;;;;;;;;;;4.93;89.08;102037.34;5061903;28;19916;-86
2021/03/23 06:07:16;;;;;;;;;;;;;;;4.93;89.69;102026.69;5043335;28;19920;-86
2021/03/23 06:09:43;;;;;;;;;;;;;;;4.92;89.41;102024.97;5060546;28;20281;-85
2021/03/23 06:12:12;;;;;;;;;;;;;;;4.93;90.03;102029.34;5075245;28;19946;-84
2021/03/23 06:14:45;;;;;;;;;;;;;;;4.93;89.51;102026.69;5061217;28;19991;-85
2021/03/23 06:17:20;;;;;;;;;;;;;;;4.94;89.38;102033.72;5060762;28;19935;-84
2021/03/23 06:19:49;;;;;;;;;;;;;;;4.95;88.97;102024.78;5083806;28;19955;-84
2021/03/23 06:22:33;;;;;;;;;;;;;;;4.96;88.84;102027.34;5066625;28;19959;-85
2021/03/23 06:25:17;;;;;;;;;;;;;;;4.98;89.52;102044.06;5065304;28;19920;-84
2021/03/23 06:27:50;;;;;;;;;;;;;;;4.99;89.04;102055.56;5064169;28;19927;-87
2021/03/23 06:30:18;;;;;;;;;;;;;;;5.01;89.32;102056.31;5084963;28;19924;-84
2021/03/23 06:32:46;;;;;;;;;;;;;;;5.04;88.89;102056.13;5083326;28;19924;-85
2021/03/23 06:35:14;;;;;;;;;;;;;;;5.05;88.98;102052.50;5079694;28;19920;-85
2021/03/23 06:37:40;;;;;;;;;;;;;;;5.08;89.59;102052.31;5078053;28;19932;-85
2021/03/23 06:40:14;;;;;;;;;;;;;;;5.10;88.48;102055.72;5084307;28;20709;-84
2021/03/23 06:42:41;;;;;;;;;;;;;;;5.14;88.83;102051.06;5084103;28;19970;-84
2021/03/23 06:45:29;;;;;;;;;;;;;;;5.14;88.38;102049.25;5081827;28;20416;-85
2021/03/23 06:47:57;;;;;;;;;;;;;;;5.18;88.65;102050.78;5070009;28;20400;-83
2021/03/23 06:50:22;;;;;;;;;;;;;;;5.19;88.14;102063.13;5069921;28;19916;-86
2021/03/23 06:53:08;;;;;;;;;;;;;;;5.18;88.07;102064.09;5069989;28;20281;-85
2021/03/23 06:55:33;;;;;;;;;;;;;;;5.24;88.08;102059.34;5054450;28;19916;-85
2021/03/23 06:58:00;;;;;;;;;;;;;;;5.25;87.76;102056.56;5082789;28;19931;-84
2021/03/23 07:00:35;;;;;;;;;;;;;;;5.29;88.03;102050.06;5088581;28;19916;-85
2021/03/23 07:03:12;;;;;;;;;;;;;;;5.32;88.44;102057.00;5081332;28;19927;-83
2021/03/23 07:05:39;;;;;;;;;;;;;;;5.33;88.16;102059.56;5086365;28;20053;-84
2021/03/23 07:08:08;;;;;;;;;;;;;;;5.37;87.81;102062.88;5080761;28;19928;-85
2021/03/23 07:10:34;;;;;;;;;;;;;;;5.37;87.13;102066.41;5068146;28;19916;-84
2021/03/23 07:13:00;;;;;;;;;;;;;;;5.42;87.93;102071.44;5064289;28;19931;-84
2021/03/23 07:15:27;;;;;;;;;;;;;;;5.46;87.82;102061.44;5060884;28;19916;-85
2021/03/23 07:17:54;;;;;;;;;;;;;;;5.44;86.94;102056.22;5063411;28;20050;-84
2021/03/23 07:20:29;;;;;;;;;;;;;;;5.46;87.51;102062.28;5083038;28;19927;-85
2021/03/23 07:22:55;;;;;;;;;;;;;;;5.51;87.98;102049.53;5079951;28;19920;-85
2021/03/23 07:25:39;;;;;;;;;;;;;;;5.56;87.66;102058.06;5084733;28;19923;-85
2021/03/23 07:28:17;;;;;;;;;;;;;;;5.63;86.84;102053.19;5077189;28;20011;-84
2021/03/23 07:30:44;;;;;;;;;;;;;;;5.69;87.34;102054.59;5066407;28;19980;-84
2021/03/23 07:33:14;;;;;;;;;;;;;;;5.71;87.17;102066.88;5079581;28;19928;-85
2021/03/23 07:35:40;;;;;;;;;;;;;;;5.79;86.68;102061.88;5083120;28;20090;-84
2021/03/23 07:38:14;;;;;;;;;;;;;;;5.84;86.47;102057.09;5068447;28;20019;-84
2021/03/23 07:40:43;;;;;;;;;;;;;;;5.86;85.58;102054.31;5065453;28;20145;-85
2021/03/23 07:43:08;;;;;;;;;;;;;;;5.89;86.44;102054.13;5082441;28;20158;-84
2021/03/23 07:45:54;;;;;;;;;;;;;;;5.94;86.61;102046.72;5072359;28;20333;-86
2021/03/23 07:48:37;;;;;;;;;;;;;;;5.99;86.89;102054.41;5061803;28;19920;-85
2021/03/23 07:51:15;;;;;;;;;;;;;;;5.96;85.76;102058.13;5067684;28;20404;-85
2021/03/23 07:53:41;;;;;;;;;;;;;;;5.98;86.00;102047.34;5072634;28;20007;-85
2021/03/23 07:56:29;;;;;;;;;;;;;;;6.10;86.50;102051.88;5071028;28;20804;-85
2021/03/23 07:59:20;;;;;;;;;;;;;;;6.20;86.40;102041.41;5090496;28;19934;-84
2021/03/23 08:01:45;;;;;;;;;;;;;;;6.27;85.70;102043.56;5075950;28;19970;-85
2021/03/23 08:04:22;;;;;;;;;;;;;;;6.24;85.45;102038.44;5089781;28;19920;-84
2021/03/23 08:06:57;;;;;;;;;;;;;;;6.28;85.53;102037.25;5087706;28;19942;-86
2021/03/23 08:09:32;;;;;;;;;;;;;;;6.31;86.19;102045.03;5091410;28;20326;-85
2021/03/23 08:12:00;;;;;;;;;;;;;;;6.35;85.90;102043.00;5072545;28;19920;-85
2021/03/23 08:14:41;;;;;;;;;;;;;;;6.42;86.32;102048.78;5076436;28;19942;-85
2021/03/23 08:17:23;;;;;;;;;;;;;;;6.45;86.24;102048.59;5071142;28;19943;-85
2021/03/23 08:19:48;;;;;;;;;;;;;;;6.44;85.94;102045.03;5089685;28;19920;-85
2021/03/23 08:22:25;;;;;;;;;;;;;;;6.51;86.80;102046.34;5085137;28;20726;-85
2021/03/23 08:25:14;;;;;;;;;;;;;;;6.60;86.07;102055.50;5072337;28;19923;-85
2021/03/23 08:27:59;;;;;;;;;;;;;;;6.62;86.26;102044.72;5074260;28;20030;-84
2021/03/23 08:30:24;;;;;;;;;;;;;;;6.68;86.87;102052.31;5055580;28;19916;-83
2021/03/23 08:32:56;;;;;;;;;;;;;;;6.74;86.64;102057.19;5072366;28;19935;-85
2021/03/23 08:35:25;;;;;;;;;;;;;;;6.89;86.44;102047.25;5090281;28;19920;-84
2021/03/23 08:38:04;;;;;;;;;;;;;;;6.91;86.17;102059.53;5073364;28;19928;-85
2021/03/23 08:40:49;;;;;;;;;;;;;;;7.00;85.78;102060.69;5090070;28;20262;-85
2021/03/23 08:43:24;;;;;;;;;;;;;;;6.98;86.10;102066.13;5069192;28;20387;-85
2021/03/23 08:45:51;;;;;;;;;;;;;;;7.07;86.71;102063.75;5068327;28;19928;-85
2021/03/23 08:48:22;;;;;;;;;;;;;;;7.11;85.77;102068.78;5072579;28;20376;-84
2021/03/23 08:50:49;;;;;;;;;;;;;;;7.20;85.44;102054.75;5086510;28;19920;-86
2021/03/23 08:53:34;;;;;;;;;;;;;;;7.32;85.34;102050.31;5084274;28;19981;-85
2021/03/23 08:56:00;;;;;;;;;;;;;;;7.39;84.58;102048.94;5081897;28;19920;-84
2021/03/23 08:58:39;;;;;;;;;;;;;;;7.41;84.30;102057.66;5082437;28;19931;-85
2021/03/23 09:01:06;;;;;;;;;;;;;;;7.51;83.94;102060.53;5067364;28;19928;-86
2021/03/23 09:03:46;;;;;;;;;;;;;;;7.56;83.68;102070.84;5079639;28;20349;-86
2021/03/23 09:06:13;;;;;;;;;;;;;;;7.61;83.14;102064.19;5093489;28;19924;-85
2021/03/23 09:08:43;;;;;;;;;;;;;;;7.68;84.25;102061.91;5070981;28;19917;-84
2021/03/23 09:11:08;;;;;;;;;;;;;;;7.80;83.26;102063.69;5058716;28;20380;-85
2021/03/23 09:13:33;;;;;;;;;;;;;;;7.78;82.81;102054.94;5060143;28;19916;-84
2021/03/23 09:15:59;;;;;;;;;;;;;;;7.85;83.46;102037.47;5051333;28;19929;-85
2021/03/23 09:18:28;;;;;;;;;;;;;;;7.97;81.98;102042.84;5078428;28;19931;-86
2021/03/23 09:20:54;;;;;;;;;;;;;;;8.02;81.66;102032.66;5064070;28;19935;-84
2021/03/23 09:23:23;;;;;;;;;;;;;;;8.01;81.70;102049.66;5075712;28;19981;-85
2021/03/23 09:25:58;;;;;;;;;;;;;;;8.08;80.46;102054.41;5062003;28;20301;-86
2021/03/23 09:28:33;;;;;;;;;;;;;;;8.12;81.62;102052.38;5099217;28;20349;-85
2021/03/23 09:31:12;;;;;;;;;;;;;;;8.13;80.11;102059.41;5062312;28;19982;-85
2021/03/23 09:33:38;;;;;;;;;;;;;;;8.08;80.41;102058.91;5056996;28;20239;-84
2021/03/23 09:36:03;;;;;;;;;;;;;;;8.04;80.43;102044.09;5069353;28;19924;-86
2021/03/23 09:38:31;;;;;;;;;;;;;;;8.06;80.87;102043.00;5070789;28;19960;-84
2021/03/23 09:40:59;;;;;;;;;;;;;;;8.08;80.91;102040.19;5066015;28;19975;-86
2021/03/23 09:43:29;;;;;;;;;;;;;;;8.22;80.97;102036.47;5059868;28;20368;-85
2021/03/23 09:46:15;;;;;;;;;;;;;;;8.20;81.04;102044.63;5068390;28;20452;-85
2021/03/23 09:48:43;;;;;;;;;;;;;;;8.28;81.20;102036.00;5062597;28;19924;-85
2021/03/23 09:51:14;;;;;;;;;;;;;;;8.39;80.72;102035.19;5064649;28;20003;-85
2021/03/23 09:53:42;;;;;;;;;;;;;;;8.42;81.00;102037.63;5081484;28;19924;-85
2021/03/23 09:56:23;;;;;;;;;;;;;;;8.44;80.86;102016.97;5063158;28;20343;-86
2021/03/23 09:59:09;;;;;;;;;;;;;;;8.56;80.91;102016.00;5073735;28;19929;-86
2021/03/23 10:01:35;;;;;;;;;;;;;;;8.64;80.72;102026.09;5048353;28;20015;-85
2021/03/23 10:04:03;;;;;;;;;;;;;;;8.65;80.70;102031.31;5058946;28;20014;-85
2021/03/23 10:06:43;;;;;;;;;;;;;;;8.75;79.80;102008.22;5046340;28;19974;-84
2021/03/23 10:09:08;;;;;;;;;;;;;;;8.77;78.84;102021.47;5060500;28;19924;-85
2021/03/23 10:11:42;;;;;;;;;;;;;;;8.73;78.97;102028.03;5058395;28;19921;-86
2021/03/23 10:14:12;;;;;;;;;;;;;;;8.72;78.40;102029.88;5059579;28;19924;-85
2021/03/23 10:16:41;;;;;;;;;;;;;;;8.76;78.49;102009.06;5063513;28;19916;-86
2021/03/23 10:19:09;;;;;;;;;;;;;;;8.89;78.45;102017.81;5068416;28;19928;-85
2021/03/23 10:21:35;;;;;;;;;;;;;;;8.89;77.86;102011.59;5068275;28;20468;-85
2021/03/23 10:24:04;;;;;;;;;;;;;;;8.89;78.05;102011.59;5063691;28;19928;-86
2021/03/23 10:26:35;;;;;;;;;;;;;;;8.99;77.73;102004.53;5062060;28;20011;-85
2021/03/23 10:29:12;;;;;;;;;;;;;;;9.09;78.74;102004.63;5051950;28;20021;-85
2021/03/23 10:31:39;;;;;;;;;;;;;;;9.20;78.46;102005.44;5072017;28;19990;-85
2021/03/23 10:34:07;;;;;;;;;;;;;;;9.30;78.55;102004.72;5053174;28;19924;-85
2021/03/23 10:36:51;;;;;;;;;;;;;;;9.32;78.86;102016.13;5064134;28;20088;-86
2021/03/23 10:39:31;;;;;;;;;;;;;;;9.42;78.71;102001.00;5059032;28;19925;-85
2021/03/23 10:41:59;;;;;;;;;;;;;;;9.56;78.68;101997.19;5060602;28;22312;-85
2021/03/23 10:44:27;;;;;;;;;;;;;;;9.64;76.81;101995.56;5074982;28;20367;-85
2021/03/23 10:46:52;;;;;;;;;;;;;;;9.62;78.12;102002.03;5063458;28;19928;-86
2021/03/23 10:49:28;;;;;;;;;;;;;;;9.71;77.52;102001.25;5067086;28;20148;-85
2021/03/23 10:52:12;;;;;;;;;;;;;;;9.61;76.87;101995.81;5067490;28;19974;-85
2021/03/23 10:54:38;;;;;;;;;;;;;;;9.49;78.17;102007.53;5059375;28;20101;-86
2021/03/23 10:57:21;;;;;;;;;;;;;;;9.56;77.81;102005.22;5041287;28;19929;-85
2021/03/23 10:59:46;;;;;;;;;;;;;;;9.57;77.55;102002.41;5056223;28;20401;-86
2021/03/23 11:02:15;;;;;;;;;;;;;;;9.57;78.23;102004.25;5052021;28;19926;-86
2021/03/23 11:04:57;;;;;;;;;;;;;;;9.66;79.01;102003.47;5073361;28;19931;-86
2021/03/23 11:07:26;;;;;;;;;;;;;;;9.67;77.48;102008.72;5077399;28;19928;-86
2021/03/23 11:09:52;;;;;;;;;;;;;;;9.56;78.08;102014.09;5042309;28;20312;-86
2021/03/23 11:12:19;;;;;;;;;;;;;;;9.59;80.68;102013.00;5062682;28;20410;-86
2021/03/23 11:14:44;;;;;;;;;;;;;;;9.55;80.96;102008.88;5033560;28;19920;-85
2021/03/23 11:17:11;;;;;;;;;;;;;;;9.60;81.91;102018.22;5051096;28;19920;-86
2021/03/23 11:19:41;;;;;;;;;;;;;;;9.58;81.81;102016.66;5051316;28;19925;-86
2021/03/23 11:22:09;;;;;;;;;;;;;;;9.50;81.61;102014.63;5068990;28;19927;-85
2021/03/23 11:24:34;;;;;;;;;;;;;;;9.65;82.10;102018.69;5067514;28;19983;-85
2021/03/23 11:27:01;;;;;;;;;;;;;;;9.56;81.26;102011.44;5065648;28;19924;-85
2021/03/23 11:29:26;;;;;;;;;;;;;;;9.37;82.29;102012.09;5050275;28;19927;-86
2021/03/23 11:31:52;;;;;;;;;;;;;;;9.34;83.10;102009.66;5056371;28;19921;-85
2021/03/23 11:34:17;;;;;;;;;;;;;;;9.35;83.27;102011.41;5056354;28;19924;-86
2021/03/23 11:36:42;;;;;;;;;;;;;;;9.26;82.47;102017.47;5066580;28;20011;-85
2021/03/23 11:39:10;;;;;;;;;;;;;;;9.16;83.73;102020.06;5079892;28;20351;-86
2021/03/23 11:41:39;;;;;;;;;;;;;;;9.24;83.82;102017.63;5080561;28;19928;-85
2021/03/23 11:44:13;;;;;;;;;;;;;;;9.24;83.16;102017.63;5063816;28;20438;-85
2021/03/23 11:46:41;;;;;;;;;;;;;;;9.11;82.98;102019.59;5067694;28;19964;-86
2021/03/23 11:49:09;;;;;;;;;;;;;;;8.90;84.25;102010.63;5081805;28;19932;-86
2021/03/23 11:51:42;;;;;;;;;;;;;;;8.86;84.69;102020.75;5083466;28;19917;-86
2021/03/23 11:54:08;;;;;;;;;;;;;;;8.80;83.85;102027.44;5058744;28;19921;-85
2021/03/23 11:56:33;;;;;;;;;;;;;;;8.73;84.08;102023.53;5096328;28;19920;-85
2021/03/23 11:59:00;;;;;;;;;;;;;;;8.60;85.34;102020.13;5045894;28;19929;-85
2021/03/23 12:01:25;;;;;;;;;;;;;;;8.74;85.56;102021.69;5081962;28;19999;-85
2021/03/23 12:03:53;;;;;;;;;;;;;;;8.63;84.42;102021.69;5067721;28;20022;-86
2021/03/23 12:06:28;;;;;;;;;;;;;;;8.55;85.83;102023.19;5086372;28;20007;-85
2021/03/23 12:08:58;;;;;;;;;;;;;;;8.59;86.34;102023.78;5078799;28;20285;-86
2021/03/23 12:11:44;;;;;;;;;;;;;;;8.51;86.76;102021.69;5069436;28;20007;-85
2021/03/23 12:14:09;;;;;;;;;;;;;;;8.41;86.17;102030.59;5078202;28;19968;-85
2021/03/23 12:16:49;;;;;;;;;;;;;;;8.35;86.82;102030.06;5092228;28;19916;-86
2021/03/23 12:19:15;;;;;;;;;;;;;;;8.44;87.35;102011.63;5089536;28;19992;-85
2021/03/23 12:21:41;;;;;;;;;;;;;;;8.34;87.54;102031.03;5091373;28;19965;-86
2021/03/23 12:24:07;;;;;;;;;;;;;;;8.39;87.42;102019.16;5071012;28;19924;-85
2021/03/23 12:26:33;;;;;;;;;;;;;;;8.37;87.66;102013.88;5063936;28;19928;-85
2021/03/23 12:29:02;;;;;;;;;;;;;;;8.28;87.64;102014.59;5068621;28;20341;-85
2021/03/23 12:31:28;;;;;;;;;;;;;;;8.23;87.66;102024.78;5080361;28;19930;-85
2021/03/23 12:33:53;;;;;;;;;;;;;;;8.23;88.36;102028.34;5064070;28;19920;-85
2021/03/23 12:36:19;;;;;;;;;;;;;;;8.14;88.12;102018.34;5078526;28;19931;-85
2021/03/23 12:38:48;;;;;;;;;;;;;;;8.19;88.12;102018.84;5064830;28;19924;-86
2021/03/23 12:41:15;;;;;;;;;;;;;;;8.33;89.04;102012.41;5070931;28;19921;-85
2021/03/23 12:43:41;;;;;;;;;;;;;;;8.32;88.03;102014.25;5068392;28;20380;-86
2021/03/23 12:46:07;;;;;;;;;;;;;;;8.20;87.79;102017.88;5064129;28;20490;-85
2021/03/23 12:48:34;;;;;;;;;;;;;;;8.21;87.62;102006.22;5091984;28;19953;-85
2021/03/23 12:50:59;;;;;;;;;;;;;;;8.32;87.04;102011.56;5070791;28;20395;-85
2021/03/23 12:53:25;;;;;;;;;;;;;;;8.29;85.14;102001.13;5066182;28;19920;-86
2021/03/23 12:55:53;;;;;;;;;;;;;;;8.35;86.93;102014.00;5085445;28;20349;-85